AUA75K LATI-LOWW
Flight info
| Callsign | AUA75K |
|---|---|
| Flight time | 1h 20m |
| Altitude | 32000 |
| Route | INLOT DCT RETRA DCT OBUTI OBUTI2W |
| Aircraft | A320/M-SDE3FGHIRWY/LB1 |
Departure
| Time | 2026-05-06 07:27 |
|---|---|
| Airport | Tirana International Airport Mother Teresa (LATI) |
Arrival
| Time | 2026-05-06 08:47 |
|---|---|
| Airport | Vienna International Airport (LOWW) |
| Time | Latitude | Longitude | Altitude | Speed | Heading |
|---|---|---|---|---|---|
| 2026-05-06 07:00 | 41.41988 | 19.71512 | 119 ft | 0 kts | 263° |
| 2026-05-06 07:20 | 41.41988 | 19.71514 | 119 ft | 2 kts | 263° |
| 2026-05-06 07:20 | 41.41989 | 19.71547 | 117 ft | 4 kts | 285° |
| 2026-05-06 07:20 | 41.41977 | 19.71574 | 116 ft | 4 kts | 335° |
| 2026-05-06 07:20 | 41.41967 | 19.71579 | 115 ft | 0 kts | 355° |
| 2026-05-06 07:22 | 41.41979 | 19.71577 | 116 ft | 5 kts | 355° |
| 2026-05-06 07:23 | 41.42041 | 19.71570 | 115 ft | 12 kts | 354° |
| 2026-05-06 07:23 | 41.42128 | 19.71553 | 116 ft | 13 kts | 353° |
| 2026-05-06 07:23 | 41.42221 | 19.71546 | 114 ft | 14 kts | 355° |
| 2026-05-06 07:23 | 41.42322 | 19.71532 | 116 ft | 16 kts | 354° |
| 2026-05-06 07:24 | 41.42436 | 19.71516 | 112 ft | 17 kts | 354° |
| 2026-05-06 07:24 | 41.42552 | 19.71500 | 115 ft | 17 kts | 354° |
| 2026-05-06 07:24 | 41.42643 | 19.71493 | 114 ft | 10 kts | 13° |
| 2026-05-06 07:24 | 41.42672 | 19.71560 | 114 ft | 8 kts | 83° |
| 2026-05-06 07:25 | 41.42678 | 19.71625 | 114 ft | 7 kts | 84° |
| 2026-05-06 07:25 | 41.42682 | 19.71679 | 113 ft | 5 kts | 84° |
| 2026-05-06 07:25 | 41.42686 | 19.71734 | 114 ft | 8 kts | 84° |
| 2026-05-06 07:25 | 41.42692 | 19.71832 | 115 ft | 11 kts | 85° |
| 2026-05-06 07:26 | 41.42660 | 19.71901 | 115 ft | 9 kts | 167° |
| 2026-05-06 07:26 | 41.42488 | 19.71923 | 115 ft | 58 kts | 175° |
| 2026-05-06 07:26 | 41.41851 | 19.72007 | 118 ft | 123 kts | 174° |
| 2026-05-06 07:26 | 41.40822 | 19.72142 | 174 ft | 167 kts | 175° |
| 2026-05-06 07:27 | 41.39664 | 19.72310 | 784 ft | 168 kts | 175° |
| 2026-05-06 07:27 | 41.38511 | 19.72465 | 1518 ft | 165 kts | 175° |
| 2026-05-06 07:27 | 41.37350 | 19.72616 | 2111 ft | 174 kts | 174° |
| 2026-05-06 07:27 | 41.36068 | 19.72779 | 2440 ft | 196 kts | 174° |
| 2026-05-06 07:28 | 41.34634 | 19.72965 | 2788 ft | 216 kts | 174° |
| 2026-05-06 07:28 | 41.33053 | 19.73172 | 3130 ft | 241 kts | 175° |
| 2026-05-06 07:28 | 41.29583 | 19.73629 | 4687 ft | 257 kts | 175° |
| 2026-05-06 07:29 | 41.27767 | 19.73869 | 5553 ft | 262 kts | 175° |
| 2026-05-06 07:29 | 41.25931 | 19.73966 | 6360 ft | 267 kts | 188° |
| 2026-05-06 07:29 | 41.24177 | 19.73141 | 7089 ft | 272 kts | 213° |
| 2026-05-06 07:29 | 41.22828 | 19.71428 | 7849 ft | 276 kts | 236° |
| 2026-05-06 07:30 | 41.22097 | 19.69066 | 8644 ft | 281 kts | 261° |
| 2026-05-06 07:30 | 41.22167 | 19.66476 | 9448 ft | 285 kts | 285° |
| 2026-05-06 07:30 | 41.23061 | 19.64120 | 10211 ft | 291 kts | 310° |
| 2026-05-06 07:30 | 41.24667 | 19.62473 | 10915 ft | 297 kts | 336° |
| 2026-05-06 07:31 | 41.26677 | 19.61785 | 11630 ft | 302 kts | 349° |
| 2026-05-06 07:31 | 41.28821 | 19.61299 | 11896 ft | 324 kts | 349° |
| 2026-05-06 07:31 | 41.31125 | 19.60786 | 12105 ft | 346 kts | 349° |
| 2026-05-06 07:31 | 41.33528 | 19.60248 | 12658 ft | 354 kts | 348° |
| 2026-05-06 07:32 | 41.35968 | 19.59696 | 13353 ft | 358 kts | 348° |
| 2026-05-06 07:32 | 41.38435 | 19.59137 | 14031 ft | 361 kts | 348° |
| 2026-05-06 07:32 | 41.40919 | 19.58570 | 14654 ft | 364 kts | 348° |
| 2026-05-06 07:32 | 41.43422 | 19.57993 | 15274 ft | 366 kts | 348° |
| 2026-05-06 07:33 | 41.45947 | 19.57409 | 15889 ft | 369 kts | 347° |
| 2026-05-06 07:33 | 41.48489 | 19.56822 | 16510 ft | 372 kts | 347° |
| 2026-05-06 07:33 | 41.51048 | 19.56230 | 17117 ft | 375 kts | 347° |
| 2026-05-06 07:33 | 41.53631 | 19.55632 | 17733 ft | 378 kts | 347° |
| 2026-05-06 07:34 | 41.56229 | 19.55031 | 18331 ft | 380 kts | 347° |
| 2026-05-06 07:34 | 41.58845 | 19.54427 | 18868 ft | 383 kts | 347° |
| 2026-05-06 07:34 | 41.61478 | 19.53816 | 19401 ft | 385 kts | 347° |
| 2026-05-06 07:34 | 41.64122 | 19.53202 | 19940 ft | 387 kts | 347° |
| 2026-05-06 07:35 | 41.66784 | 19.52587 | 20480 ft | 389 kts | 347° |
| 2026-05-06 07:35 | 41.69455 | 19.51969 | 21019 ft | 391 kts | 347° |
| 2026-05-06 07:35 | 41.72144 | 19.51345 | 21545 ft | 393 kts | 347° |
| 2026-05-06 07:35 | 41.74843 | 19.50715 | 22062 ft | 395 kts | 347° |
| 2026-05-06 07:36 | 41.77556 | 19.50081 | 22555 ft | 397 kts | 347° |
| 2026-05-06 07:36 | 41.80253 | 19.49450 | 23043 ft | 399 kts | 346° |
| 2026-05-06 07:36 | 41.83033 | 19.48799 | 23525 ft | 401 kts | 346° |
| 2026-05-06 07:36 | 41.85789 | 19.48154 | 23938 ft | 403 kts | 346° |
| 2026-05-06 07:37 | 41.88528 | 19.47513 | 24308 ft | 406 kts | 346° |
| 2026-05-06 07:37 | 41.91315 | 19.46862 | 24675 ft | 408 kts | 346° |
| 2026-05-06 07:37 | 41.94122 | 19.46208 | 25029 ft | 410 kts | 346° |
| 2026-05-06 07:37 | 41.96939 | 19.45544 | 25364 ft | 412 kts | 345° |
| 2026-05-06 07:38 | 41.99694 | 19.44510 | 25663 ft | 412 kts | 337° |
| 2026-05-06 07:38 | 42.02400 | 19.43230 | 25990 ft | 414 kts | 337° |
| 2026-05-06 07:38 | 42.05123 | 19.41939 | 26319 ft | 416 kts | 337° |
| 2026-05-06 07:38 | 42.07861 | 19.40639 | 26663 ft | 418 kts | 337° |
| 2026-05-06 07:39 | 42.10613 | 19.39329 | 26979 ft | 420 kts | 337° |
| 2026-05-06 07:39 | 42.13378 | 19.38011 | 27299 ft | 422 kts | 337° |
| 2026-05-06 07:39 | 42.16155 | 19.36688 | 27607 ft | 424 kts | 337° |
| 2026-05-06 07:39 | 42.18002 | 19.35809 | 27828 ft | 425 kts | 337° |
| 2026-05-06 07:40 | 42.20796 | 19.34476 | 28148 ft | 427 kts | 337° |
| 2026-05-06 07:40 | 42.23558 | 19.33006 | 28445 ft | 426 kts | 330° |
| 2026-05-06 07:40 | 42.26206 | 19.31203 | 28729 ft | 427 kts | 330° |
| 2026-05-06 07:40 | 42.28862 | 19.29383 | 29007 ft | 429 kts | 330° |
| 2026-05-06 07:41 | 42.31533 | 19.27558 | 29275 ft | 431 kts | 330° |
| 2026-05-06 07:41 | 42.34212 | 19.25730 | 29527 ft | 433 kts | 330° |
| 2026-05-06 07:41 | 42.37781 | 19.23299 | 29864 ft | 435 kts | 330° |
| 2026-05-06 07:41 | 42.39607 | 19.22051 | 30033 ft | 436 kts | 330° |
| 2026-05-06 07:42 | 42.42317 | 19.20192 | 30266 ft | 437 kts | 329° |
| 2026-05-06 07:42 | 42.45034 | 19.18329 | 30473 ft | 438 kts | 330° |
| 2026-05-06 07:42 | 42.47752 | 19.16468 | 30755 ft | 437 kts | 330° |
| 2026-05-06 07:42 | 42.50465 | 19.14606 | 31029 ft | 437 kts | 329° |
| 2026-05-06 07:43 | 42.53170 | 19.12739 | 31298 ft | 436 kts | 329° |
| 2026-05-06 07:43 | 42.55874 | 19.10868 | 31544 ft | 437 kts | 329° |
| 2026-05-06 07:43 | 42.58581 | 19.08995 | 31749 ft | 438 kts | 329° |
| 2026-05-06 07:43 | 42.61258 | 19.07144 | 32019 ft | 438 kts | 329° |
| 2026-05-06 07:44 | 42.63969 | 19.05272 | 32301 ft | 437 kts | 329° |
| 2026-05-06 07:44 | 42.66679 | 19.03403 | 32594 ft | 436 kts | 329° |
| 2026-05-06 07:44 | 42.69383 | 19.01534 | 32888 ft | 436 kts | 329° |
| 2026-05-06 07:44 | 42.72084 | 18.99664 | 33157 ft | 435 kts | 329° |
| 2026-05-06 07:45 | 42.74779 | 18.97796 | 33419 ft | 435 kts | 329° |
| 2026-05-06 07:45 | 42.77474 | 18.95927 | 33687 ft | 434 kts | 329° |
| 2026-05-06 07:45 | 42.80165 | 18.94060 | 33956 ft | 434 kts | 329° |
| 2026-05-06 07:45 | 42.82857 | 18.92190 | 34077 ft | 434 kts | 329° |
| 2026-05-06 07:46 | 42.88212 | 18.88454 | 34087 ft | 432 kts | 329° |
| 2026-05-06 07:46 | 42.93550 | 18.84716 | 34088 ft | 431 kts | 329° |
| 2026-05-06 07:47 | 42.98892 | 18.80979 | 34078 ft | 431 kts | 329° |
| 2026-05-06 07:47 | 43.04234 | 18.77239 | 34084 ft | 432 kts | 329° |
| 2026-05-06 07:48 | 43.09590 | 18.73471 | 34086 ft | 433 kts | 329° |
| 2026-05-06 07:48 | 43.14942 | 18.69699 | 34075 ft | 433 kts | 329° |
| 2026-05-06 07:49 | 43.20295 | 18.65927 | 34071 ft | 433 kts | 329° |
| 2026-05-06 07:49 | 43.25648 | 18.62152 | 34059 ft | 432 kts | 329° |
| 2026-05-06 07:50 | 43.30997 | 18.58374 | 34051 ft | 432 kts | 328° |
| 2026-05-06 07:50 | 43.36345 | 18.54578 | 34056 ft | 433 kts | 328° |
| 2026-05-06 07:51 | 43.41690 | 18.50780 | 34057 ft | 432 kts | 328° |
| 2026-05-06 07:51 | 43.47036 | 18.46973 | 34055 ft | 433 kts | 328° |
| 2026-05-06 07:52 | 43.52382 | 18.43158 | 34057 ft | 433 kts | 328° |
| 2026-05-06 07:52 | 43.57695 | 18.39358 | 34039 ft | 433 kts | 328° |
| 2026-05-06 07:53 | 43.63048 | 18.35516 | 34041 ft | 434 kts | 328° |
| 2026-05-06 07:53 | 43.68408 | 18.31666 | 34041 ft | 434 kts | 328° |
| 2026-05-06 07:54 | 43.73766 | 18.27814 | 34045 ft | 434 kts | 328° |
| 2026-05-06 07:54 | 43.79133 | 18.23949 | 34049 ft | 435 kts | 328° |
| 2026-05-06 07:55 | 43.84492 | 18.20073 | 34047 ft | 435 kts | 328° |
| 2026-05-06 07:55 | 43.89851 | 18.16198 | 34046 ft | 435 kts | 328° |
| 2026-05-06 07:56 | 43.95209 | 18.12312 | 34053 ft | 434 kts | 328° |
| 2026-05-06 07:56 | 44.00556 | 18.08418 | 34050 ft | 434 kts | 328° |
| 2026-05-06 07:57 | 44.05896 | 18.04525 | 34037 ft | 433 kts | 328° |
| 2026-05-06 07:57 | 44.11239 | 18.00631 | 34029 ft | 434 kts | 328° |
| 2026-05-06 07:58 | 44.16587 | 17.96723 | 34024 ft | 434 kts | 328° |
| 2026-05-06 07:58 | 44.21931 | 17.92804 | 34019 ft | 434 kts | 328° |
| 2026-05-06 07:59 | 44.27269 | 17.88875 | 34019 ft | 434 kts | 328° |
| 2026-05-06 07:59 | 44.32610 | 17.84950 | 34011 ft | 434 kts | 328° |
| 2026-05-06 08:00 | 44.37951 | 17.81023 | 34008 ft | 434 kts | 328° |
| 2026-05-06 08:00 | 44.43297 | 17.77075 | 33993 ft | 435 kts | 328° |
| 2026-05-06 08:01 | 44.48607 | 17.73143 | 33987 ft | 435 kts | 328° |
| 2026-05-06 08:01 | 44.53955 | 17.69175 | 33993 ft | 435 kts | 328° |
| 2026-05-06 08:02 | 44.59303 | 17.65197 | 33995 ft | 435 kts | 328° |
| 2026-05-06 08:02 | 44.64644 | 17.61212 | 34009 ft | 435 kts | 327° |
| 2026-05-06 08:03 | 44.69977 | 17.57227 | 33999 ft | 434 kts | 327° |
| 2026-05-06 08:03 | 44.75302 | 17.53245 | 33991 ft | 433 kts | 327° |
| 2026-05-06 08:04 | 44.80620 | 17.49253 | 33978 ft | 433 kts | 327° |
| 2026-05-06 08:04 | 44.85933 | 17.45259 | 33984 ft | 432 kts | 327° |
| 2026-05-06 08:05 | 44.91238 | 17.41273 | 33980 ft | 432 kts | 327° |
| 2026-05-06 08:05 | 44.96536 | 17.37281 | 33995 ft | 431 kts | 327° |
| 2026-05-06 08:06 | 45.01826 | 17.33275 | 33987 ft | 431 kts | 327° |
| 2026-05-06 08:06 | 45.07105 | 17.29272 | 33994 ft | 430 kts | 327° |
| 2026-05-06 08:07 | 45.12377 | 17.25269 | 33993 ft | 430 kts | 327° |
| 2026-05-06 08:07 | 45.17645 | 17.21262 | 33991 ft | 430 kts | 327° |
| 2026-05-06 08:08 | 45.22915 | 17.17247 | 33998 ft | 430 kts | 326° |
| 2026-05-06 08:08 | 45.28172 | 17.13227 | 34005 ft | 429 kts | 326° |
| 2026-05-06 08:09 | 45.33428 | 17.09203 | 33989 ft | 429 kts | 326° |
| 2026-05-06 08:09 | 45.38680 | 17.05178 | 33981 ft | 429 kts | 326° |
| 2026-05-06 08:10 | 45.43928 | 17.01143 | 33976 ft | 429 kts | 326° |
| 2026-05-06 08:10 | 45.49136 | 16.97122 | 33970 ft | 428 kts | 326° |
| 2026-05-06 08:11 | 45.54372 | 16.93077 | 33987 ft | 428 kts | 326° |
| 2026-05-06 08:11 | 45.59608 | 16.89028 | 33981 ft | 428 kts | 326° |
| 2026-05-06 08:12 | 45.64838 | 16.84967 | 33968 ft | 428 kts | 326° |
| 2026-05-06 08:12 | 45.70066 | 16.80900 | 33961 ft | 428 kts | 326° |
| 2026-05-06 08:13 | 45.75289 | 16.76830 | 33956 ft | 428 kts | 326° |
| 2026-05-06 08:13 | 45.80513 | 16.72751 | 33976 ft | 428 kts | 325° |
| 2026-05-06 08:14 | 45.85733 | 16.68669 | 33967 ft | 427 kts | 325° |
| 2026-05-06 08:14 | 45.90949 | 16.64579 | 33961 ft | 427 kts | 325° |
| 2026-05-06 08:15 | 45.96159 | 16.60476 | 33959 ft | 427 kts | 325° |
| 2026-05-06 08:15 | 46.01365 | 16.56380 | 33958 ft | 426 kts | 326° |
| 2026-05-06 08:16 | 46.06458 | 16.52365 | 33947 ft | 426 kts | 326° |
| 2026-05-06 08:16 | 46.11661 | 16.48259 | 33970 ft | 426 kts | 325° |
| 2026-05-06 08:17 | 46.16865 | 16.44141 | 33955 ft | 427 kts | 325° |
| 2026-05-06 08:17 | 46.22064 | 16.40011 | 33952 ft | 427 kts | 325° |
| 2026-05-06 08:18 | 46.27257 | 16.35873 | 33946 ft | 426 kts | 325° |
| 2026-05-06 08:18 | 46.32443 | 16.31727 | 33934 ft | 426 kts | 324° |
| 2026-05-06 08:19 | 46.37760 | 16.27884 | 33937 ft | 433 kts | 334° |
| 2026-05-06 08:19 | 46.43732 | 16.26010 | 33827 ft | 444 kts | 344° |
| 2026-05-06 08:20 | 46.46792 | 16.25292 | 33591 ft | 445 kts | 344° |
| 2026-05-06 08:20 | 46.49854 | 16.24573 | 33307 ft | 447 kts | 344° |
| 2026-05-06 08:20 | 46.52927 | 16.23849 | 33043 ft | 448 kts | 344° |
| 2026-05-06 08:20 | 46.56007 | 16.23122 | 32773 ft | 449 kts | 345° |
| 2026-05-06 08:21 | 46.59097 | 16.22391 | 32514 ft | 451 kts | 345° |
| 2026-05-06 08:21 | 46.62201 | 16.21653 | 32188 ft | 452 kts | 345° |
| 2026-05-06 08:21 | 46.65323 | 16.20909 | 31142 ft | 459 kts | 346° |
| 2026-05-06 08:21 | 46.68449 | 16.20164 | 30656 ft | 452 kts | 346° |
| 2026-05-06 08:22 | 46.71543 | 16.19430 | 30021 ft | 449 kts | 347° |
| 2026-05-06 08:22 | 46.74617 | 16.18698 | 29345 ft | 446 kts | 347° |
| 2026-05-06 08:22 | 46.77668 | 16.17967 | 28743 ft | 442 kts | 347° |
| 2026-05-06 08:22 | 46.80687 | 16.17242 | 28146 ft | 438 kts | 347° |
| 2026-05-06 08:23 | 46.83682 | 16.16522 | 27548 ft | 435 kts | 347° |
| 2026-05-06 08:23 | 46.86658 | 16.15808 | 26968 ft | 432 kts | 347° |
| 2026-05-06 08:23 | 46.89610 | 16.15100 | 26380 ft | 429 kts | 347° |
| 2026-05-06 08:23 | 46.92547 | 16.14394 | 25806 ft | 426 kts | 347° |
| 2026-05-06 08:24 | 46.95461 | 16.13696 | 25261 ft | 423 kts | 347° |
| 2026-05-06 08:24 | 46.98363 | 16.13001 | 24712 ft | 421 kts | 347° |
| 2026-05-06 08:24 | 47.01244 | 16.12305 | 24184 ft | 419 kts | 347° |
| 2026-05-06 08:24 | 47.04107 | 16.11613 | 23664 ft | 416 kts | 347° |
| 2026-05-06 08:25 | 47.06961 | 16.10924 | 23123 ft | 414 kts | 347° |
| 2026-05-06 08:25 | 47.09785 | 16.10241 | 22630 ft | 410 kts | 347° |
| 2026-05-06 08:25 | 47.12585 | 16.09564 | 22162 ft | 405 kts | 347° |
| 2026-05-06 08:25 | 47.15353 | 16.08893 | 21700 ft | 402 kts | 347° |
| 2026-05-06 08:26 | 47.18100 | 16.08224 | 21243 ft | 398 kts | 347° |
| 2026-05-06 08:26 | 47.20804 | 16.07562 | 20791 ft | 394 kts | 347° |
| 2026-05-06 08:26 | 47.23505 | 16.06899 | 20315 ft | 392 kts | 347° |
| 2026-05-06 08:26 | 47.26185 | 16.06245 | 19848 ft | 389 kts | 347° |
| 2026-05-06 08:27 | 47.28852 | 16.05596 | 19371 ft | 387 kts | 347° |
| 2026-05-06 08:27 | 47.31501 | 16.04953 | 18899 ft | 385 kts | 347° |
| 2026-05-06 08:27 | 47.34141 | 16.04329 | 18409 ft | 385 kts | 350° |
| 2026-05-06 08:27 | 47.36824 | 16.04230 | 17877 ft | 387 kts | 2° |
| 2026-05-06 08:28 | 47.39467 | 16.04921 | 17553 ft | 385 kts | 14° |
| 2026-05-06 08:28 | 47.41156 | 16.05725 | 17362 ft | 384 kts | 16° |
| 2026-05-06 08:28 | 47.43685 | 16.06977 | 17044 ft | 382 kts | 16° |
| 2026-05-06 08:28 | 47.46204 | 16.08220 | 16736 ft | 381 kts | 16° |
| 2026-05-06 08:29 | 47.48715 | 16.09459 | 16432 ft | 380 kts | 16° |
| 2026-05-06 08:29 | 47.51219 | 16.10699 | 16124 ft | 379 kts | 16° |
| 2026-05-06 08:29 | 47.53716 | 16.11941 | 15818 ft | 378 kts | 16° |
| 2026-05-06 08:29 | 47.56206 | 16.13184 | 15517 ft | 377 kts | 16° |
| 2026-05-06 08:30 | 47.58688 | 16.14424 | 15211 ft | 376 kts | 15° |
| 2026-05-06 08:30 | 47.61165 | 16.15661 | 14911 ft | 375 kts | 16° |
| 2026-05-06 08:30 | 47.63636 | 16.16895 | 14607 ft | 374 kts | 16° |
| 2026-05-06 08:30 | 47.66101 | 16.18124 | 14312 ft | 374 kts | 15° |
| 2026-05-06 08:31 | 47.68565 | 16.19351 | 14012 ft | 373 kts | 15° |
| 2026-05-06 08:31 | 47.71016 | 16.20574 | 13703 ft | 371 kts | 15° |
| 2026-05-06 08:31 | 47.73458 | 16.21795 | 13385 ft | 370 kts | 16° |
| 2026-05-06 08:31 | 47.75889 | 16.23047 | 13082 ft | 370 kts | 20° |
| 2026-05-06 08:32 | 47.78171 | 16.24799 | 12791 ft | 370 kts | 31° |
| 2026-05-06 08:32 | 47.80340 | 16.26842 | 12492 ft | 368 kts | 31° |
| 2026-05-06 08:32 | 47.82503 | 16.28874 | 12197 ft | 367 kts | 31° |
| 2026-05-06 08:32 | 47.84660 | 16.30892 | 11901 ft | 365 kts | 31° |
| 2026-05-06 08:33 | 47.86805 | 16.32897 | 11608 ft | 363 kts | 31° |
| 2026-05-06 08:33 | 47.88939 | 16.34896 | 11313 ft | 361 kts | 31° |
| 2026-05-06 08:33 | 47.91061 | 16.36891 | 11032 ft | 359 kts | 31° |
| 2026-05-06 08:33 | 47.93161 | 16.38871 | 10737 ft | 356 kts | 32° |
| 2026-05-06 08:34 | 47.95245 | 16.40834 | 10452 ft | 353 kts | 32° |
| 2026-05-06 08:34 | 47.99279 | 16.44638 | 10132 ft | 331 kts | 32° |
| 2026-05-06 08:34 | 48.01187 | 16.46447 | 9990 ft | 320 kts | 32° |
| 2026-05-06 08:35 | 48.03048 | 16.48207 | 9765 ft | 313 kts | 32° |
| 2026-05-06 08:35 | 48.04884 | 16.49941 | 9623 ft | 311 kts | 32° |
| 2026-05-06 08:35 | 48.06706 | 16.51662 | 9369 ft | 309 kts | 32° |
| 2026-05-06 08:35 | 48.08492 | 16.53353 | 9097 ft | 307 kts | 32° |
| 2026-05-06 08:36 | 48.10287 | 16.55059 | 8812 ft | 304 kts | 32° |
| 2026-05-06 08:36 | 48.12063 | 16.56749 | 8539 ft | 301 kts | 33° |
| 2026-05-06 08:36 | 48.13844 | 16.58444 | 8263 ft | 299 kts | 33° |
| 2026-05-06 08:36 | 48.15567 | 16.60084 | 7994 ft | 296 kts | 33° |
| 2026-05-06 08:37 | 48.17304 | 16.61735 | 7728 ft | 294 kts | 33° |
| 2026-05-06 08:37 | 48.19026 | 16.63373 | 7454 ft | 293 kts | 33° |
| 2026-05-06 08:37 | 48.20806 | 16.64826 | 7199 ft | 291 kts | 21° |
| 2026-05-06 08:37 | 48.22769 | 16.65514 | 6938 ft | 290 kts | 4° |
| 2026-05-06 08:38 | 48.24770 | 16.65358 | 6675 ft | 288 kts | 347° |
| 2026-05-06 08:38 | 48.26674 | 16.64586 | 6521 ft | 277 kts | 343° |
| 2026-05-06 08:38 | 48.28486 | 16.63820 | 6411 ft | 264 kts | 343° |
| 2026-05-06 08:38 | 48.30219 | 16.63094 | 6300 ft | 253 kts | 343° |
| 2026-05-06 08:39 | 48.31895 | 16.62390 | 6191 ft | 249 kts | 343° |
| 2026-05-06 08:39 | 48.33549 | 16.61694 | 6074 ft | 245 kts | 343° |
| 2026-05-06 08:39 | 48.35194 | 16.60998 | 5960 ft | 245 kts | 343° |
| 2026-05-06 08:39 | 48.36829 | 16.60302 | 5854 ft | 244 kts | 341° |
| 2026-05-06 08:40 | 48.38247 | 16.59004 | 5747 ft | 239 kts | 308° |
| 2026-05-06 08:40 | 48.38958 | 16.56808 | 5656 ft | 234 kts | 275° |
| 2026-05-06 08:40 | 48.39098 | 16.54376 | 5553 ft | 234 kts | 272° |
| 2026-05-06 08:40 | 48.39244 | 16.51941 | 5450 ft | 234 kts | 272° |
| 2026-05-06 08:41 | 48.39046 | 16.49605 | 5354 ft | 228 kts | 241° |
| 2026-05-06 08:41 | 48.38012 | 16.47891 | 5252 ft | 223 kts | 206° |
| 2026-05-06 08:41 | 48.36524 | 16.47422 | 5157 ft | 222 kts | 172° |
| 2026-05-06 08:41 | 48.35020 | 16.47978 | 5062 ft | 220 kts | 164° |
| 2026-05-06 08:42 | 48.33586 | 16.48617 | 4911 ft | 212 kts | 164° |
| 2026-05-06 08:42 | 48.32182 | 16.49226 | 4669 ft | 208 kts | 165° |
| 2026-05-06 08:42 | 48.30799 | 16.49818 | 4396 ft | 205 kts | 165° |
| 2026-05-06 08:42 | 48.29431 | 16.50401 | 4129 ft | 204 kts | 165° |
| 2026-05-06 08:43 | 48.28071 | 16.50981 | 3837 ft | 202 kts | 164° |
| 2026-05-06 08:43 | 48.26743 | 16.51546 | 3592 ft | 196 kts | 164° |
| 2026-05-06 08:43 | 48.25452 | 16.52096 | 3321 ft | 190 kts | 165° |
| 2026-05-06 08:43 | 48.24202 | 16.52628 | 3078 ft | 185 kts | 164° |
| 2026-05-06 08:44 | 48.22979 | 16.53148 | 2827 ft | 179 kts | 163° |
| 2026-05-06 08:44 | 48.21820 | 16.53640 | 2594 ft | 168 kts | 164° |
| 2026-05-06 08:44 | 48.20742 | 16.54098 | 2401 ft | 153 kts | 163° |
| 2026-05-06 08:44 | 48.19754 | 16.54517 | 2190 ft | 143 kts | 163° |
| 2026-05-06 08:45 | 48.18795 | 16.54925 | 1997 ft | 142 kts | 163° |
| 2026-05-06 08:45 | 48.17849 | 16.55335 | 1800 ft | 141 kts | 163° |
| 2026-05-06 08:45 | 48.16922 | 16.55735 | 1604 ft | 138 kts | 163° |
| 2026-05-06 08:45 | 48.16003 | 16.56118 | 1433 ft | 136 kts | 163° |
| 2026-05-06 08:46 | 48.15097 | 16.56499 | 1219 ft | 134 kts | 163° |
| 2026-05-06 08:46 | 48.14195 | 16.56881 | 1024 ft | 136 kts | 163° |
| 2026-05-06 08:46 | 48.13294 | 16.57260 | 867 ft | 134 kts | 162° |
| 2026-05-06 08:46 | 48.12387 | 16.57643 | 696 ft | 136 kts | 163° |
| 2026-05-06 08:47 | 48.11485 | 16.58023 | 611 ft | 126 kts | 163° |
| 2026-05-06 08:47 | 48.10790 | 16.58322 | 617 ft | 79 kts | 164° |
| 2026-05-06 08:47 | 48.10438 | 16.58466 | 613 ft | 26 kts | 169° |
| 2026-05-06 08:47 | 48.10263 | 16.58453 | 608 ft | 26 kts | 194° |
| 2026-05-06 08:48 | 48.10136 | 16.58383 | 619 ft | 16 kts | 233° |
| 2026-05-06 08:48 | 48.10191 | 16.58292 | 617 ft | 13 kts | 346° |
| 2026-05-06 08:48 | 48.10282 | 16.58255 | 614 ft | 13 kts | 345° |
| 2026-05-06 08:48 | 48.10365 | 16.58220 | 619 ft | 12 kts | 344° |
| 2026-05-06 08:49 | 48.10474 | 16.58173 | 610 ft | 18 kts | 344° |
| 2026-05-06 08:49 | 48.10598 | 16.58122 | 619 ft | 19 kts | 345° |
| 2026-05-06 08:49 | 48.10732 | 16.58066 | 616 ft | 21 kts | 344° |
| 2026-05-06 08:49 | 48.10872 | 16.58006 | 618 ft | 21 kts | 344° |
| 2026-05-06 08:50 | 48.11015 | 16.57944 | 613 ft | 22 kts | 344° |
| 2026-05-06 08:50 | 48.11116 | 16.57844 | 608 ft | 17 kts | 295° |
| 2026-05-06 08:50 | 48.11165 | 16.57692 | 615 ft | 15 kts | 296° |
| 2026-05-06 08:50 | 48.11209 | 16.57555 | 611 ft | 14 kts | 295° |
| 2026-05-06 08:51 | 48.11250 | 16.57431 | 616 ft | 14 kts | 296° |
| 2026-05-06 08:51 | 48.11296 | 16.57289 | 612 ft | 15 kts | 296° |
| 2026-05-06 08:51 | 48.11340 | 16.57153 | 612 ft | 16 kts | 296° |
| 2026-05-06 08:51 | 48.11389 | 16.57004 | 620 ft | 15 kts | 296° |
| 2026-05-06 08:52 | 48.11441 | 16.56878 | 608 ft | 13 kts | 325° |
| 2026-05-06 08:52 | 48.11518 | 16.56909 | 608 ft | 11 kts | 26° |
| 2026-05-06 08:52 | 48.11583 | 16.56898 | 614 ft | 9 kts | 317° |
| 2026-05-06 08:52 | 48.11616 | 16.56805 | 608 ft | 10 kts | 296° |
| 2026-05-06 08:53 | 48.11644 | 16.56718 | 608 ft | 9 kts | 296° |
| 2026-05-06 08:53 | 48.11671 | 16.56635 | 615 ft | 9 kts | 296° |
| 2026-05-06 08:53 | 48.11702 | 16.56538 | 613 ft | 10 kts | 295° |
| 2026-05-06 08:53 | 48.11693 | 16.56470 | 612 ft | 7 kts | 206° |
| 2026-05-06 08:54 | 48.11655 | 16.56444 | 608 ft | 3 kts | 206° |
| 2026-05-06 08:54 | 48.11652 | 16.56442 | 608 ft | 0 kts | 206° |
| 2026-05-06 08:59 | 48.11652 | 16.56441 | 608 ft | 0 kts | 206° |